Atlasgracht — PCVX — position and weather

sailwx.info

Track history (hours):
 
Tides and Currents Weather Stations Pressure Air Temp Water Temp Dewpoint Dewpoint Depression Visibility Wind Speed Wind Dir Waves Ship Positions

Atlasgracht

Last reported at 2018-Jul-19 01:18 UTC. Time now 2018-Jul-19 05:46 UTC.
Position N 39°54' W 009°51'.

Length 130 m; beam 19 m; draft 9 m.

Type: Ship. MMSI: 244060802.

Date/timePositionNaut miles runAvg speedWind from/ knotsBaromVisibWave heightAir tempDewpointWater temp
2018-Jul-19 01:18N 39°54' W 009°51'511.7
2018-Jul-19 00:52N 39°49' W 009°51'411.6
2018-Jul-19 00:30N 39°45' W 009°51'811.7
2018-Jul-18 23:51N 39°37' W 009°51'711.9
2018-Jul-18 23:14N 39°30' W 009°51'611.9
2018-Jul-18 22:45N 39°24' W 009°51'311.6
2018-Jul-18 22:28N 39°21' W 009°51'511.5
2018-Jul-18 22:00N 39°16' W 009°51'611.6
2018-Jul-18 21:30N 39°10' W 009°51'611.7
2018-Jul-18 21:00N 39°04' W 009°51'611.8
2018-Jul-18 20:30N 38°58' W 009°52'611.6
2018-Jul-18 20:00N 38°52' W 009°52'611.9
2018-Jul-18 19:30N 38°46' W 009°52'612.0
2018-Jul-18 19:00N 38°40' W 009°51'611.9
2018-Jul-18 18:30N 38°35' W 009°49'611.8
2018-Jul-18 18:00N 38°29' W 009°48'611.7
2018-Jul-18 17:30N 38°23' W 009°46'611.5
2018-Jul-18 17:00N 38°18' W 009°44'611.4
2018-Jul-18 16:30N 38°12' W 009°42'611.3
2018-Jul-18 16:00N 38°07' W 009°41'611.4
2018-Jul-18 15:30N 38°01' W 009°39'12910.5
2018-Jul-18 03:10N 36°24' W 007°52'313.0
2018-Jul-18 02:59N 36°23' W 007°49'613.0
2018-Jul-18 02:30N 36°21' W 007°42'813.3
2018-Jul-18 01:56N 36°19' W 007°33'1013.3
2018-Jul-18 01:10N 36°16' W 007°21'313.5
2018-Jul-18 00:58N 36°15' W 007°18'612.7
2018-Jul-18 00:28N 36°13' W 007°10'613.2
2018-Jul-18 00:00N 36°11' W 007°03'813.2
2018-Jul-17 23:25N 36°09' W 006°54'2913.0
2018-Jul-17 21:10N 35°59' W 006°20'311.8
2018-Jul-17 20:53N 35°58' W 006°16'511.7
2018-Jul-17 20:29N 35°58' W 006°10'711.5
2018-Jul-17 19:51N 35°58' W 006°01'411.2
2018-Jul-17 19:29N 35°58' W 005°56'511.2
2018-Jul-17 19:00N 35°58' W 005°49'510.6
2018-Jul-17 18:29N 35°58' W 005°43'511.2
2018-Jul-17 18:00N 35°57' W 005°36'611.9
2018-Jul-17 17:30N 35°59' W 005°29'510.9
2018-Jul-17 17:00N 36°00' W 005°22'612.3
2018-Jul-17 16:30N 35°55' W 005°19'1 1.6
2018-Jul-17 15:55N 35°54' W 005°19'0 0.0
2018-Jul-17 15:25N 35°54' W 005°19'0 0.0
2018-Jul-17 14:58N 35°54' W 005°19'0 0.0
2018-Jul-17 14:25N 35°54' W 005°19'0 0.0
2018-Jul-17 13:58N 35°54' W 005°19'0 0.0
2018-Jul-17 13:28N 35°54' W 005°19'0 0.0
2018-Jul-17 12:58N 35°54' W 005°19'0 0.0
2018-Jul-17 12:28N 35°54' W 005°19'0 0.0
2018-Jul-17 11:58N 35°54' W 005°19'0 0.0
2018-Jul-17 11:28N 35°54' W 005°19'0 0.0
2018-Jul-17 10:55N 35°54' W 005°19'0 0.0
2018-Jul-17 10:25N 35°54' W 005°19'0 0.0
2018-Jul-17 10:00N 35°54' W 005°19'1 1.6
2018-Jul-17 09:30N 35°55' W 005°19'4 8.8
2018-Jul-17 09:00N 35°57' W 005°14'34411.6
2018-Jul-16 03:19N 38°03' E 001°27'410.9
2018-Jul-16 02:59N 38°05' E 001°31'1511.2
2018-Jul-16 01:37N 38°13' E 001°48'711.9
2018-Jul-16 01:03N 38°16' E 001°55'112.0
2018-Jul-16 00:59N 38°17' E 001°56'911.9
2018-Jul-16 00:15N 38°21' E 002°06'312.3
2018-Jul-16 00:00N 38°22' E 002°09'612.1
2018-Jul-15 23:29N 38°25' E 002°16'1312.1
2018-Jul-15 22:23N 38°32' E 002°31'512.2
2018-Jul-15 21:56N 38°35' E 002°37'2212.5
2018-Jul-15 20:10N 38°45' E 003°02'212.7
2018-Jul-15 20:00N 38°46' E 003°04'713.0
2018-Jul-15 19:30N 38°50' E 003°11'510.5
2018-Jul-15 19:00N 38°52' E 003°17'510.4
2018-Jul-15 18:30N 38°55' E 003°23'713.2
2018-Jul-15 18:00N 38°58' E 003°30'713.2
2018-Jul-15 17:29N 39°01' E 003°38'713.2
2018-Jul-15 17:00N 39°05' E 003°45'713.4
2018-Jul-15 16:30N 39°08' E 003°53'813.5
2018-Jul-15 15:53N 39°12' E 004°02'513.3
2018-Jul-15 15:30N 39°14' E 004°08'713.5
2018-Jul-15 15:00N 39°18' E 004°15'713.5
2018-Jul-15 14:30N 39°21' E 004°23'1113.5
2018-Jul-15 13:41N 39°27' E 004°36'213.4
2018-Jul-15 13:30N 39°28' E 004°38'2013.2
2018-Jul-15 12:00N 39°43' E 004°54'713.1
2018-Jul-15 11:30N 39°48' E 004°59'713.1
2018-Jul-15 11:00N 39°54' E 005°04'713.1
2018-Jul-15 10:30N 39°59' E 005°09'913.1
2018-Jul-15 09:49N 40°07' E 005°16'413.2
2018-Jul-15 09:30N 40°10' E 005°19'713.4
2018-Jul-15 09:00N 40°16' E 005°24'1013.6
2018-Jul-15 08:17N 40°24' E 005°31'413.7
2018-Jul-15 08:00N 40°27' E 005°34'713.3
2018-Jul-15 07:30N 40°32' E 005°39'713.1
2018-Jul-15 07:00N 40°37' E 005°44'713.1
2018-Jul-15 06:30N 40°43' E 005°49'1913.0
2018-Jul-15 05:04N 40°58' E 006°03'113.0
2018-Jul-15 05:00N 40°59' E 006°04'713.1
2018-Jul-15 04:27N 41°05' E 006°09'613.0
2018-Jul-15 04:00N 41°10' E 006°13'712.8
2018-Jul-15 03:30N 41°15' E 006°18'1313.0
2018-Jul-15 02:32N 41°25' E 006°28'013.7
2018-Jul-15 02:30N 41°26' E 006°28'1813.2
2018-Jul-15 01:09N 41°40' E 006°42'213.1
2018-Jul-15 01:00N 41°42' E 006°43'1613.0
2018-Jul-14 23:49N 41°55' E 006°55'413.2
2018-Jul-14 23:29N 41°58' E 006°59'613.2
2018-Jul-14 23:00N 42°03' E 007°03'713.2
2018-Jul-14 22:30N 42°09' E 007°08'713.4
2018-Jul-14 22:00N 42°14' E 007°14'713.3
2018-Jul-14 21:30N 42°20' E 007°19'713.3
2018-Jul-14 20:59N 42°25' E 007°24'613.3
2018-Jul-14 20:30N 42°31' E 007°29'713.2
2018-Jul-14 20:00N 42°36' E 007°34'713.2
2018-Jul-14 19:30N 42°41' E 007°39'713.2
2018-Jul-14 19:00N 42°47' E 007°45'713.2
2018-Jul-14 18:30N 42°52' E 007°50'612.8
2018-Jul-14 18:00N 42°58' E 007°55'612.7
2018-Jul-14 17:30N 43°03' E 007°59'612.6
2018-Jul-14 17:00N 43°08' E 008°04'612.7
2018-Jul-14 16:30N 43°13' E 008°09'612.8
2018-Jul-14 16:00N 43°18' E 008°14'612.9
2018-Jul-14 15:30N 43°24' E 008°19'713.1
2018-Jul-14 15:00N 43°29' E 008°24'713.1
2018-Jul-14 14:30N 43°34' E 008°30'1312.8
2018-Jul-14 13:30N 43°45' E 008°40'612.8
2018-Jul-14 13:00N 43°51' E 008°43'612.7
2018-Jul-14 12:30N 43°57' E 008°46'612.8
2018-Jul-14 12:00N 44°03' E 008°49'612.9
2018-Jul-14 11:30N 44°09' E 008°52'613.0
2018-Jul-14 11:00N 44°15' E 008°55'612.6
2018-Jul-14 10:30N 44°21' E 008°57'4 7.7
2018-Jul-14 10:00N 44°24' E 008°54'0 0.4
2018-Jul-14 09:29N 44°24' E 008°53'0 0.0
2018-Jul-14 08:59N 44°24' E 008°53'0 0.0
2018-Jul-14 08:29N 44°24' E 008°53'0 0.0
2018-Jul-14 07:59N 44°24' E 008°53'0 0.0
2018-Jul-14 07:29N 44°24' E 008°53'0 0.0
2018-Jul-14 06:59N 44°24' E 008°53'0 0.0
2018-Jul-14 06:29N 44°24' E 008°53'0 0.0
2018-Jul-14 05:59N 44°24' E 008°53'0 0.0
2018-Jul-14 05:29N 44°24' E 008°53'0 0.0
2018-Jul-14 04:59N 44°24' E 008°53'0 0.0
2018-Jul-14 04:29N 44°24' E 008°53'0 0.0
2018-Jul-14 03:59N 44°24' E 008°53'0 0.0
2018-Jul-14 03:29N 44°24' E 008°53'0 0.0
2018-Jul-14 02:59N 44°24' E 008°53'0 0.0
2018-Jul-14 02:29N 44°24' E 008°53'0 0.0
2018-Jul-14 01:59N 44°24' E 008°53'0 0.0
2018-Jul-14 01:29N 44°24' E 008°53'0 0.0
2018-Jul-14 00:59N 44°24' E 008°53'0 0.0
2018-Jul-14 00:29N 44°24' E 008°53'0 0.0
2018-Jul-13 23:59N 44°24' E 008°53'0 0.0
2018-Jul-13 23:29N 44°24' E 008°53'0 0.0
2018-Jul-13 22:59N 44°24' E 008°53'0 0.0
2018-Jul-13 22:29N 44°24' E 008°53'0 0.0
2018-Jul-13 21:59N 44°24' E 008°53'0 0.0
2018-Jul-13 21:29N 44°24' E 008°53'0 0.0
2018-Jul-13 20:59N 44°24' E 008°53'0 0.0
2018-Jul-13 20:29N 44°24' E 008°53'0 0.0
2018-Jul-13 19:59N 44°24' E 008°53'0 0.0
2018-Jul-13 19:29N 44°24' E 008°53'0 0.0
2018-Jul-13 18:59N 44°24' E 008°53'0 0.0
2018-Jul-13 18:29N 44°24' E 008°53'0 0.0
2018-Jul-13 17:59N 44°24' E 008°53'0 0.0
2018-Jul-13 17:29N 44°24' E 008°53'0 0.0
2018-Jul-13 16:59N 44°24' E 008°53'0 0.0
2018-Jul-13 16:29N 44°24' E 008°53'0 0.0
2018-Jul-13 15:59N 44°24' E 008°53'0 0.0
2018-Jul-13 15:29N 44°24' E 008°53'0 0.0
2018-Jul-13 14:59N 44°24' E 008°53'0 0.0
2018-Jul-13 14:29N 44°24' E 008°53'0 0.0
2018-Jul-13 13:29N 44°24' E 008°53'0 0.0
2018-Jul-13 12:59N 44°24' E 008°53'0 0.0
2018-Jul-13 12:29N 44°24' E 008°53'0 0.0
2018-Jul-13 11:59N 44°24' E 008°53'0 0.0
2018-Jul-13 11:29N 44°24' E 008°53'0 0.0
2018-Jul-13 10:59N 44°24' E 008°53'0 0.0
2018-Jul-13 10:29N 44°24' E 008°53'0 0.0
2018-Jul-13 09:59N 44°24' E 008°53'0 0.0
2018-Jul-13 09:29N 44°24' E 008°53'0 0.0
2018-Jul-13 08:59N 44°24' E 008°53'0 0.0
2018-Jul-13 08:29N 44°24' E 008°53'0 0.0
2018-Jul-13 07:59N 44°24' E 008°53'0 0.0
2018-Jul-13 07:29N 44°24' E 008°53'0 0.0
2018-Jul-13 06:59N 44°24' E 008°53'0 0.0
2018-Jul-13 06:29N 44°24' E 008°53'0 0.0
2018-Jul-13 05:59N 44°24' E 008°53'0 0.0
2018-Jul-13 05:29N 44°24' E 008°53'0 0.0
2018-Jul-13 05:00N 44°24' E 008°53'1 1.4
2018-Jul-13 04:30N 44°24' E 008°54'3 5.5
2018-Jul-13 04:00N 44°22' E 008°57'4 7.5
2018-Jul-13 03:30N 44°19' E 008°58'5 9.4
2018-Jul-13 03:00N 44°14' E 008°56'5 9.6
2018-Jul-13 02:30N 44°10' E 008°53'5 9.7
2018-Jul-13 02:00N 44°05' E 008°51'5 9.8
2018-Jul-13 01:30N 44°01' E 008°48'5 9.8
2018-Jul-13 01:00N 43°56' E 008°46'5 9.9
2018-Jul-13 00:30N 43°51' E 008°43'5 9.9
2018-Jul-13 00:00N 43°47' E 008°41'5 9.9
2018-Jul-12 23:30N 43°42' E 008°38'5 9.8
2018-Jul-12 23:00N 43°38' E 008°34'5 9.8
2018-Jul-12 22:30N 43°34' E 008°31'5 9.8
2018-Jul-12 21:57N 43°30' E 008°26'4 9.8
2018-Jul-12 21:30N 43°26' E 008°23'5 9.8
2018-Jul-12 21:00N 43°22' E 008°19'5 9.7
2018-Jul-12 20:30N 43°18' E 008°15'5 9.8
2018-Jul-12 20:00N 43°14' E 008°11'5 9.8
2018-Jul-12 19:30N 43°10' E 008°07'5 9.8
2018-Jul-12 19:00N 43°06' E 008°03'5 9.9
2018-Jul-12 18:30N 43°02' E 007°59'510.0
2018-Jul-12 18:00N 42°58' E 007°56'510.1
2018-Jul-12 17:30N 42°54' E 007°52'5 9.9
2018-Jul-12 17:00N 42°50' E 007°48'5 9.9
2018-Jul-12 16:30N 42°46' E 007°44'5 9.7
2018-Jul-12 16:00N 42°42' E 007°40'5 9.8
2018-Jul-12 15:30N 42°38' E 007°36'5 9.7
2018-Jul-12 15:00N 42°34' E 007°32'5 9.8
2018-Jul-12 14:30N 42°30' E 007°28'5 9.8
2018-Jul-12 14:00N 42°26' E 007°25'510.2
2018-Jul-12 13:30N 42°22' E 007°21'510.1
2018-Jul-12 13:00N 42°18' E 007°17'5 9.9
2018-Jul-12 12:30N 42°14' E 007°13'5 9.9
2018-Jul-12 12:00N 42°10' E 007°09'5 9.8
2018-Jul-12 11:30N 42°06' E 007°05'5 9.7
2018-Jul-12 11:00N 42°02' E 007°02'510.0
2018-Jul-12 10:30N 41°57' E 006°58'5 9.9
2018-Jul-12 10:00N 41°53' E 006°54'5 9.9
2018-Jul-12 09:30N 41°49' E 006°50'8 9.9
2018-Jul-12 08:45N 41°43' E 006°44'80 9.9
2018-Jul-12 00:38N 40°38' E 005°43'1 9.9
2018-Jul-12 00:30N 40°36' E 005°42'2010.1
2018-Jul-11 22:32N 40°20' E 005°27'1 9.7
2018-Jul-11 22:24N 40°19' E 005°26'8 9.6
2018-Jul-11 21:35N 40°13' E 005°21'1 9.6
2018-Jul-11 21:30N 40°12' E 005°20'8 9.9
2018-Jul-11 20:44N 40°06' E 005°14'2 9.9
2018-Jul-11 20:30N 40°04' E 005°12'2410.1
2018-Jul-11 18:04N 39°44' E 004°54'110.3
2018-Jul-11 18:00N 39°43' E 004°54'510.3
2018-Jul-11 17:28N 39°39' E 004°50'1010.2
2018-Jul-11 16:29N 39°31' E 004°42'1610.1
2018-Jul-11 14:54N 39°21' E 004°25'410.1
2018-Jul-11 14:28N 39°19' E 004°20'1310.2
2018-Jul-11 13:10N 39°12' E 004°06'410.1
2018-Jul-11 12:47N 39°10' E 004°02'810.0
2018-Jul-11 11:59N 39°05' E 003°54'5 9.5
2018-Jul-11 11:28N 39°02' E 003°48'7 9.9
2018-Jul-11 10:48N 38°59' E 003°41'4 9.9
2018-Jul-11 10:24N 38°56' E 003°37'410.0
2018-Jul-11 10:00N 38°54' E 003°33'5 9.9
2018-Jul-11 09:30N 38°52' E 003°27'510.0
2018-Jul-11 09:00N 38°49' E 003°22'510.0
2018-Jul-11 08:30N 38°46' E 003°17'510.0
2018-Jul-11 08:00N 38°43' E 003°11'5 9.9
2018-Jul-11 07:30N 38°40' E 003°06'5 9.9
2018-Jul-11 07:00N 38°38' E 003°01'510.1
2018-Jul-11 06:29N 38°35' E 002°55'510.2
2018-Jul-11 06:00N 38°32' E 002°50'510.8
2018-Jul-11 05:30N 38°29' E 002°44'610.7
2018-Jul-11 04:58N 38°26' E 002°38'510.8
2018-Jul-11 04:30N 38°23' E 002°33'710.7
2018-Jul-11 03:48N 38°19' E 002°25'310.7
2018-Jul-11 03:30N 38°17' E 002°21'510.7
2018-Jul-11 03:00N 38°14' E 002°16'510.4
2018-Jul-11 02:30N 38°11' E 002°10'510.4
2018-Jul-11 02:00N 38°08' E 002°05'510.3
2018-Jul-11 01:30N 38°05' E 001°59'510.3
2018-Jul-11 01:00N 38°03' E 001°54'510.3
2018-Jul-11 00:28N 37°60' E 001°48'510.4
2018-Jul-11 00:00N 37°57' E 001°43'510.5
2018-Jul-10 23:30N 37°54' E 001°37'510.3
2018-Jul-10 22:58N 37°51' E 001°31'510.2
2018-Jul-10 22:30N 37°48' E 001°26'610.2
2018-Jul-10 21:54N 37°45' E 001°20'410.2
2018-Jul-10 21:29N 37°43' E 001°15'610.2
2018-Jul-10 20:52N 37°39' E 001°09'610.1
2018-Jul-10 20:15N 37°36' E 001°02'210.1
2018-Jul-10 20:00N 37°34' E 000°60'510.1
2018-Jul-10 19:29N 37°31' E 000°54'510.1
2018-Jul-10 18:58N 37°29' E 000°49'510.0
2018-Jul-10 18:29N 37°26' E 000°44'510.1
2018-Jul-10 17:59N 37°23' E 000°38'610.0
2018-Jul-10 17:25N 37°20' E 000°33'410.1
2018-Jul-10 17:00N 37°17' E 000°28'610.2
2018-Jul-10 16:27N 37°14' E 000°22'510.3
2018-Jul-10 16:00N 37°12' E 000°17'510.4
2018-Jul-10 15:30N 37°09' E 000°12'610.3
2018-Jul-10 14:54N 37°06' E 000°05'410.3
2018-Jul-10 14:30N 37°03' E 000°01'510.3
2018-Jul-10 14:00N 37°01' W 000°04'610.4
2018-Jul-10 13:25N 36°57' W 000°11'510.1
2018-Jul-10 12:53N 36°54' W 000°16'610.1
2018-Jul-10 12:16N 36°51' W 000°23'310.1
2018-Jul-10 12:00N 36°49' W 000°25'510.4
2018-Jul-10 11:30N 36°46' W 000°31'510.3
2018-Jul-10 10:58N 36°43' W 000°36'510.5
2018-Jul-10 10:30N 36°40' W 000°41'510.3
2018-Jul-10 10:00N 36°37' W 000°46'510.2
2018-Jul-10 09:30N 36°35' W 000°52'9 9.9
2018-Jul-10 08:38N 36°30' W 001°01'410.3
2018-Jul-10 08:16N 36°28' W 001°05'810.3
2018-Jul-10 07:28N 36°23' W 001°13'710.4
2018-Jul-10 06:46N 36°19' W 001°21'310.7
2018-Jul-10 06:28N 36°17' W 001°24'18411.0
2018-Jul-09 13:44N 36°01' W 005°11'312.7
2018-Jul-09 13:30N 36°01' W 005°14'612.3
2018-Jul-09 13:00N 35°59' W 005°22'611.7
2018-Jul-09 12:30N 35°57' W 005°28'8810.8
2018-Jul-09 04:19N 35°47' W 007°17'310.3
2018-Jul-09 03:59N 35°46' W 007°21'610.7
2018-Jul-09 03:25N 35°45' W 007°28'1910.7
2018-Jul-09 01:41N 35°43' W 007°51'210.9
2018-Jul-09 01:30N 35°43' W 007°53'  
Track history (hours):
 
Tides and Currents Weather Stations Pressure Air Temp Water Temp Dewpoint Dewpoint Depression Visibility Wind Speed Wind Dir Waves Ship Positions

Atlasgracht

Last reported at 2018-Jul-19 01:18 UTC. Time now 2018-Jul-19 05:46 UTC.
Position N 39°54' W 009°51'.

Length 130 m; beam 19 m; draft 9 m.

Type: Ship. MMSI: 244060802.

Date/timePositionNaut miles runAvg speedWind from/ knotsBaromVisibWave heightAir tempDewpointWater temp
2018-Jul-19 01:18N 39°54' W 009°51'511.7
2018-Jul-19 00:52N 39°49' W 009°51'411.6
2018-Jul-19 00:30N 39°45' W 009°51'811.7
2018-Jul-18 23:51N 39°37' W 009°51'711.9
2018-Jul-18 23:14N 39°30' W 009°51'611.9
2018-Jul-18 22:45N 39°24' W 009°51'311.6
2018-Jul-18 22:28N 39°21' W 009°51'511.5
2018-Jul-18 22:00N 39°16' W 009°51'611.6
2018-Jul-18 21:30N 39°10' W 009°51'611.7
2018-Jul-18 21:00N 39°04' W 009°51'611.8
2018-Jul-18 20:30N 38°58' W 009°52'611.6
2018-Jul-18 20:00N 38°52' W 009°52'611.9
2018-Jul-18 19:30N 38°46' W 009°52'612.0
2018-Jul-18 19:00N 38°40' W 009°51'611.9
2018-Jul-18 18:30N 38°35' W 009°49'611.8
2018-Jul-18 18:00N 38°29' W 009°48'611.7
2018-Jul-18 17:30N 38°23' W 009°46'611.5
2018-Jul-18 17:00N 38°18' W 009°44'611.4
2018-Jul-18 16:30N 38°12' W 009°42'611.3
2018-Jul-18 16:00N 38°07' W 009°41'611.4
2018-Jul-18 15:30N 38°01' W 009°39'12910.5
2018-Jul-18 03:10N 36°24' W 007°52'313.0
2018-Jul-18 02:59N 36°23' W 007°49'613.0
2018-Jul-18 02:30N 36°21' W 007°42'813.3
2018-Jul-18 01:56N 36°19' W 007°33'1013.3
2018-Jul-18 01:10N 36°16' W 007°21'313.5
2018-Jul-18 00:58N 36°15' W 007°18'612.7
2018-Jul-18 00:28N 36°13' W 007°10'613.2
2018-Jul-18 00:00N 36°11' W 007°03'813.2
2018-Jul-17 23:25N 36°09' W 006°54'2913.0
2018-Jul-17 21:10N 35°59' W 006°20'311.8
2018-Jul-17 20:53N 35°58' W 006°16'511.7
2018-Jul-17 20:29N 35°58' W 006°10'711.5
2018-Jul-17 19:51N 35°58' W 006°01'411.2
2018-Jul-17 19:29N 35°58' W 005°56'511.2
2018-Jul-17 19:00N 35°58' W 005°49'510.6
2018-Jul-17 18:29N 35°58' W 005°43'511.2
2018-Jul-17 18:00N 35°57' W 005°36'611.9
2018-Jul-17 17:30N 35°59' W 005°29'510.9
2018-Jul-17 17:00N 36°00' W 005°22'612.3
2018-Jul-17 16:30N 35°55' W 005°19'1 1.6
2018-Jul-17 15:55N 35°54' W 005°19'0 0.0
2018-Jul-17 15:25N 35°54' W 005°19'0 0.0
2018-Jul-17 14:58N 35°54' W 005°19'0 0.0
2018-Jul-17 14:25N 35°54' W 005°19'0 0.0
2018-Jul-17 13:58N 35°54' W 005°19'0 0.0
2018-Jul-17 13:28N 35°54' W 005°19'0 0.0
2018-Jul-17 12:58N 35°54' W 005°19'0 0.0
2018-Jul-17 12:28N 35°54' W 005°19'0 0.0
2018-Jul-17 11:58N 35°54' W 005°19'0 0.0
2018-Jul-17 11:28N 35°54' W 005°19'0 0.0
2018-Jul-17 10:55N 35°54' W 005°19'0 0.0
2018-Jul-17 10:25N 35°54' W 005°19'0 0.0
2018-Jul-17 10:00N 35°54' W 005°19'1 1.6
2018-Jul-17 09:30N 35°55' W 005°19'4 8.8
2018-Jul-17 09:00N 35°57' W 005°14'34411.6
2018-Jul-16 03:19N 38°03' E 001°27'410.9
2018-Jul-16 02:59N 38°05' E 001°31'1511.2
2018-Jul-16 01:37N 38°13' E 001°48'711.9
2018-Jul-16 01:03N 38°16' E 001°55'112.0
2018-Jul-16 00:59N 38°17' E 001°56'911.9
2018-Jul-16 00:15N 38°21' E 002°06'312.3
2018-Jul-16 00:00N 38°22' E 002°09'612.1
2018-Jul-15 23:29N 38°25' E 002°16'1312.1
2018-Jul-15 22:23N 38°32' E 002°31'512.2
2018-Jul-15 21:56N 38°35' E 002°37'2212.5
2018-Jul-15 20:10N 38°45' E 003°02'212.7
2018-Jul-15 20:00N 38°46' E 003°04'713.0
2018-Jul-15 19:30N 38°50' E 003°11'510.5
2018-Jul-15 19:00N 38°52' E 003°17'510.4
2018-Jul-15 18:30N 38°55' E 003°23'713.2
2018-Jul-15 18:00N 38°58' E 003°30'713.2
2018-Jul-15 17:29N 39°01' E 003°38'713.2
2018-Jul-15 17:00N 39°05' E 003°45'713.4
2018-Jul-15 16:30N 39°08' E 003°53'813.5
2018-Jul-15 15:53N 39°12' E 004°02'513.3
2018-Jul-15 15:30N 39°14' E 004°08'713.5
2018-Jul-15 15:00N 39°18' E 004°15'713.5
2018-Jul-15 14:30N 39°21' E 004°23'1113.5
2018-Jul-15 13:41N 39°27' E 004°36'213.4
2018-Jul-15 13:30N 39°28' E 004°38'2013.2
2018-Jul-15 12:00N 39°43' E 004°54'713.1
2018-Jul-15 11:30N 39°48' E 004°59'713.1
2018-Jul-15 11:00N 39°54' E 005°04'713.1
2018-Jul-15 10:30N 39°59' E 005°09'913.1
2018-Jul-15 09:49N 40°07' E 005°16'413.2
2018-Jul-15 09:30N 40°10' E 005°19'713.4
2018-Jul-15 09:00N 40°16' E 005°24'1013.6
2018-Jul-15 08:17N 40°24' E 005°31'413.7
2018-Jul-15 08:00N 40°27' E 005°34'713.3
2018-Jul-15 07:30N 40°32' E 005°39'713.1
2018-Jul-15 07:00N 40°37' E 005°44'713.1
2018-Jul-15 06:30N 40°43' E 005°49'1913.0
2018-Jul-15 05:04N 40°58' E 006°03'113.0
2018-Jul-15 05:00N 40°59' E 006°04'713.1
2018-Jul-15 04:27N 41°05' E 006°09'613.0
2018-Jul-15 04:00N 41°10' E 006°13'712.8
2018-Jul-15 03:30N 41°15' E 006°18'1313.0
2018-Jul-15 02:32N 41°25' E 006°28'013.7
2018-Jul-15 02:30N 41°26' E 006°28'1813.2
2018-Jul-15 01:09N 41°40' E 006°42'213.1
2018-Jul-15 01:00N 41°42' E 006°43'1613.0
2018-Jul-14 23:49N 41°55' E 006°55'413.2
2018-Jul-14 23:29N 41°58' E 006°59'613.2
2018-Jul-14 23:00N 42°03' E 007°03'713.2
2018-Jul-14 22:30N 42°09' E 007°08'713.4
2018-Jul-14 22:00N 42°14' E 007°14'713.3
2018-Jul-14 21:30N 42°20' E 007°19'713.3
2018-Jul-14 20:59N 42°25' E 007°24'613.3
2018-Jul-14 20:30N 42°31' E 007°29'713.2
2018-Jul-14 20:00N 42°36' E 007°34'713.2
2018-Jul-14 19:30N 42°41' E 007°39'713.2
2018-Jul-14 19:00N 42°47' E 007°45'713.2
2018-Jul-14 18:30N 42°52' E 007°50'612.8
2018-Jul-14 18:00N 42°58' E 007°55'612.7
2018-Jul-14 17:30N 43°03' E 007°59'612.6
2018-Jul-14 17:00N 43°08' E 008°04'612.7
2018-Jul-14 16:30N 43°13' E 008°09'612.8
2018-Jul-14 16:00N 43°18' E 008°14'612.9
2018-Jul-14 15:30N 43°24' E 008°19'713.1
2018-Jul-14 15:00N 43°29' E 008°24'713.1
2018-Jul-14 14:30N 43°34' E 008°30'1312.8
2018-Jul-14 13:30N 43°45' E 008°40'612.8
2018-Jul-14 13:00N 43°51' E 008°43'612.7
2018-Jul-14 12:30N 43°57' E 008°46'612.8
2018-Jul-14 12:00N 44°03' E 008°49'612.9
2018-Jul-14 11:30N 44°09' E 008°52'613.0
2018-Jul-14 11:00N 44°15' E 008°55'612.6
2018-Jul-14 10:30N 44°21' E 008°57'4 7.7
2018-Jul-14 10:00N 44°24' E 008°54'0 0.4
2018-Jul-14 09:29N 44°24' E 008°53'0 0.0
2018-Jul-14 08:59N 44°24' E 008°53'0 0.0
2018-Jul-14 08:29N 44°24' E 008°53'0 0.0
2018-Jul-14 07:59N 44°24' E 008°53'0 0.0
2018-Jul-14 07:29N 44°24' E 008°53'0 0.0
2018-Jul-14 06:59N 44°24' E 008°53'0 0.0
2018-Jul-14 06:29N 44°24' E 008°53'0 0.0
2018-Jul-14 05:59N 44°24' E 008°53'0 0.0
2018-Jul-14 05:29N 44°24' E 008°53'0 0.0
2018-Jul-14 04:59N 44°24' E 008°53'0 0.0
2018-Jul-14 04:29N 44°24' E 008°53'0 0.0
2018-Jul-14 03:59N 44°24' E 008°53'0 0.0
2018-Jul-14 03:29N 44°24' E 008°53'0 0.0
2018-Jul-14 02:59N 44°24' E 008°53'0 0.0
2018-Jul-14 02:29N 44°24' E 008°53'0 0.0
2018-Jul-14 01:59N 44°24' E 008°53'0 0.0
2018-Jul-14 01:29N 44°24' E 008°53'0 0.0
2018-Jul-14 00:59N 44°24' E 008°53'0 0.0
2018-Jul-14 00:29N 44°24' E 008°53'0 0.0
2018-Jul-13 23:59N 44°24' E 008°53'0 0.0
2018-Jul-13 23:29N 44°24' E 008°53'0 0.0
2018-Jul-13 22:59N 44°24' E 008°53'0 0.0
2018-Jul-13 22:29N 44°24' E 008°53'0 0.0
2018-Jul-13 21:59N 44°24' E 008°53'0 0.0
2018-Jul-13 21:29N 44°24' E 008°53'0 0.0
2018-Jul-13 20:59N 44°24' E 008°53'0 0.0
2018-Jul-13 20:29N 44°24' E 008°53'0 0.0
2018-Jul-13 19:59N 44°24' E 008°53'0 0.0
2018-Jul-13 19:29N 44°24' E 008°53'0 0.0
2018-Jul-13 18:59N 44°24' E 008°53'0 0.0
2018-Jul-13 18:29N 44°24' E 008°53'0 0.0
2018-Jul-13 17:59N 44°24' E 008°53'0 0.0
2018-Jul-13 17:29N 44°24' E 008°53'0 0.0
2018-Jul-13 16:59N 44°24' E 008°53'0 0.0
2018-Jul-13 16:29N 44°24' E 008°53'0 0.0
2018-Jul-13 15:59N 44°24' E 008°53'0 0.0
2018-Jul-13 15:29N 44°24' E 008°53'0 0.0
2018-Jul-13 14:59N 44°24' E 008°53'0 0.0
2018-Jul-13 14:29N 44°24' E 008°53'0 0.0
2018-Jul-13 13:29N 44°24' E 008°53'0 0.0
2018-Jul-13 12:59N 44°24' E 008°53'0 0.0
2018-Jul-13 12:29N 44°24' E 008°53'0 0.0
2018-Jul-13 11:59N 44°24' E 008°53'0 0.0
2018-Jul-13 11:29N 44°24' E 008°53'0 0.0
2018-Jul-13 10:59N 44°24' E 008°53'0 0.0
2018-Jul-13 10:29N 44°24' E 008°53'0 0.0
2018-Jul-13 09:59N 44°24' E 008°53'0 0.0
2018-Jul-13 09:29N 44°24' E 008°53'0 0.0
2018-Jul-13 08:59N 44°24' E 008°53'0 0.0
2018-Jul-13 08:29N 44°24' E 008°53'0 0.0
2018-Jul-13 07:59N 44°24' E 008°53'0 0.0
2018-Jul-13 07:29N 44°24' E 008°53'0 0.0
2018-Jul-13 06:59N 44°24' E 008°53'0 0.0
2018-Jul-13 06:29N 44°24' E 008°53'0 0.0
2018-Jul-13 05:59N 44°24' E 008°53'0 0.0
2018-Jul-13 05:29N 44°24' E 008°53'0 0.0
2018-Jul-13 05:00N 44°24' E 008°53'1 1.4
2018-Jul-13 04:30N 44°24' E 008°54'3 5.5
2018-Jul-13 04:00N 44°22' E 008°57'4 7.5
2018-Jul-13 03:30N 44°19' E 008°58'5 9.4
2018-Jul-13 03:00N 44°14' E 008°56'5 9.6
2018-Jul-13 02:30N 44°10' E 008°53'5 9.7
2018-Jul-13 02:00N 44°05' E 008°51'5 9.8
2018-Jul-13 01:30N 44°01' E 008°48'5 9.8
2018-Jul-13 01:00N 43°56' E 008°46'5 9.9
2018-Jul-13 00:30N 43°51' E 008°43'5 9.9
2018-Jul-13 00:00N 43°47' E 008°41'5 9.9
2018-Jul-12 23:30N 43°42' E 008°38'5 9.8
2018-Jul-12 23:00N 43°38' E 008°34'5 9.8
2018-Jul-12 22:30N 43°34' E 008°31'5 9.8
2018-Jul-12 21:57N 43°30' E 008°26'4 9.8
2018-Jul-12 21:30N 43°26' E 008°23'5 9.8
2018-Jul-12 21:00N 43°22' E 008°19'5 9.7
2018-Jul-12 20:30N 43°18' E 008°15'5 9.8
2018-Jul-12 20:00N 43°14' E 008°11'5 9.8
2018-Jul-12 19:30N 43°10' E 008°07'5 9.8
2018-Jul-12 19:00N 43°06' E 008°03'5 9.9
2018-Jul-12 18:30N 43°02' E 007°59'510.0
2018-Jul-12 18:00N 42°58' E 007°56'510.1
2018-Jul-12 17:30N 42°54' E 007°52'5 9.9
2018-Jul-12 17:00N 42°50' E 007°48'5 9.9
2018-Jul-12 16:30N 42°46' E 007°44'5 9.7
2018-Jul-12 16:00N 42°42' E 007°40'5 9.8
2018-Jul-12 15:30N 42°38' E 007°36'5 9.7
2018-Jul-12 15:00N 42°34' E 007°32'5 9.8
2018-Jul-12 14:30N 42°30' E 007°28'5 9.8
2018-Jul-12 14:00N 42°26' E 007°25'510.2
2018-Jul-12 13:30N 42°22' E 007°21'510.1
2018-Jul-12 13:00N 42°18' E 007°17'5 9.9
2018-Jul-12 12:30N 42°14' E 007°13'5 9.9
2018-Jul-12 12:00N 42°10' E 007°09'5 9.8
2018-Jul-12 11:30N 42°06' E 007°05'5 9.7
2018-Jul-12 11:00N 42°02' E 007°02'510.0
2018-Jul-12 10:30N 41°57' E 006°58'5 9.9
2018-Jul-12 10:00N 41°53' E 006°54'5 9.9
2018-Jul-12 09:30N 41°49' E 006°50'8 9.9
2018-Jul-12 08:45N 41°43' E 006°44'80 9.9
2018-Jul-12 00:38N 40°38' E 005°43'1 9.9
2018-Jul-12 00:30N 40°36' E 005°42'2010.1
2018-Jul-11 22:32N 40°20' E 005°27'1 9.7
2018-Jul-11 22:24N 40°19' E 005°26'8 9.6
2018-Jul-11 21:35N 40°13' E 005°21'1 9.6
2018-Jul-11 21:30N 40°12' E 005°20'8 9.9
2018-Jul-11 20:44N 40°06' E 005°14'2 9.9
2018-Jul-11 20:30N 40°04' E 005°12'2410.1
2018-Jul-11 18:04N 39°44' E 004°54'110.3
2018-Jul-11 18:00N 39°43' E 004°54'510.3
2018-Jul-11 17:28N 39°39' E 004°50'1010.2
2018-Jul-11 16:29N 39°31' E 004°42'1610.1
2018-Jul-11 14:54N 39°21' E 004°25'410.1
2018-Jul-11 14:28N 39°19' E 004°20'1310.2
2018-Jul-11 13:10N 39°12' E 004°06'410.1
2018-Jul-11 12:47N 39°10' E 004°02'810.0
2018-Jul-11 11:59N 39°05' E 003°54'5 9.5
2018-Jul-11 11:28N 39°02' E 003°48'7 9.9
2018-Jul-11 10:48N 38°59' E 003°41'4 9.9
2018-Jul-11 10:24N 38°56' E 003°37'410.0
2018-Jul-11 10:00N 38°54' E 003°33'5 9.9
2018-Jul-11 09:30N 38°52' E 003°27'510.0
2018-Jul-11 09:00N 38°49' E 003°22'510.0
2018-Jul-11 08:30N 38°46' E 003°17'510.0
2018-Jul-11 08:00N 38°43' E 003°11'5 9.9
2018-Jul-11 07:30N 38°40' E 003°06'5 9.9
2018-Jul-11 07:00N 38°38' E 003°01'510.1
2018-Jul-11 06:29N 38°35' E 002°55'510.2
2018-Jul-11 06:00N 38°32' E 002°50'510.8
2018-Jul-11 05:30N 38°29' E 002°44'610.7
2018-Jul-11 04:58N 38°26' E 002°38'510.8
2018-Jul-11 04:30N 38°23' E 002°33'710.7
2018-Jul-11 03:48N 38°19' E 002°25'310.7
2018-Jul-11 03:30N 38°17' E 002°21'510.7
2018-Jul-11 03:00N 38°14' E 002°16'510.4
2018-Jul-11 02:30N 38°11' E 002°10'510.4
2018-Jul-11 02:00N 38°08' E 002°05'510.3
2018-Jul-11 01:30N 38°05' E 001°59'510.3
2018-Jul-11 01:00N 38°03' E 001°54'510.3
2018-Jul-11 00:28N 37°60' E 001°48'510.4
2018-Jul-11 00:00N 37°57' E 001°43'510.5
2018-Jul-10 23:30N 37°54' E 001°37'510.3
2018-Jul-10 22:58N 37°51' E 001°31'510.2
2018-Jul-10 22:30N 37°48' E 001°26'610.2
2018-Jul-10 21:54N 37°45' E 001°20'410.2
2018-Jul-10 21:29N 37°43' E 001°15'610.2
2018-Jul-10 20:52N 37°39' E 001°09'610.1
2018-Jul-10 20:15N 37°36' E 001°02'210.1
2018-Jul-10 20:00N 37°34' E 000°60'510.1
2018-Jul-10 19:29N 37°31' E 000°54'510.1
2018-Jul-10 18:58N 37°29' E 000°49'510.0
2018-Jul-10 18:29N 37°26' E 000°44'510.1
2018-Jul-10 17:59N 37°23' E 000°38'610.0
2018-Jul-10 17:25N 37°20' E 000°33'410.1
2018-Jul-10 17:00N 37°17' E 000°28'610.2
2018-Jul-10 16:27N 37°14' E 000°22'510.3
2018-Jul-10 16:00N 37°12' E 000°17'510.4
2018-Jul-10 15:30N 37°09' E 000°12'610.3
2018-Jul-10 14:54N 37°06' E 000°05'410.3
2018-Jul-10 14:30N 37°03' E 000°01'510.3
2018-Jul-10 14:00N 37°01' W 000°04'610.4
2018-Jul-10 13:25N 36°57' W 000°11'510.1
2018-Jul-10 12:53N 36°54' W 000°16'610.1
2018-Jul-10 12:16N 36°51' W 000°23'310.1
2018-Jul-10 12:00N 36°49' W 000°25'510.4
2018-Jul-10 11:30N 36°46' W 000°31'510.3
2018-Jul-10 10:58N 36°43' W 000°36'510.5
2018-Jul-10 10:30N 36°40' W 000°41'510.3
2018-Jul-10 10:00N 36°37' W 000°46'510.2
2018-Jul-10 09:30N 36°35' W 000°52'9 9.9
2018-Jul-10 08:38N 36°30' W 001°01'410.3
2018-Jul-10 08:16N 36°28' W 001°05'810.3
2018-Jul-10 07:28N 36°23' W 001°13'710.4
2018-Jul-10 06:46N 36°19' W 001°21'310.7
2018-Jul-10 06:28N 36°17' W 001°24'18411.0
2018-Jul-09 13:44N 36°01' W 005°11'312.7
2018-Jul-09 13:30N 36°01' W 005°14'612.3
2018-Jul-09 13:00N 35°59' W 005°22'611.7
2018-Jul-09 12:30N 35°57' W 005°28'8810.8
2018-Jul-09 04:19N 35°47' W 007°17'310.3
2018-Jul-09 03:59N 35°46' W 007°21'610.7
2018-Jul-09 03:25N 35°45' W 007°28'1910.7
2018-Jul-09 01:41N 35°43' W 007°51'210.9
2018-Jul-09 01:30N 35°43' W 007°53'  

Dump ship's entire track history